SBFL/FLN METAR and TAF weather

Enter ICAO airport designator
Station Type Date Time Source
SBFL METAR 2018/12/17 18:00 UTC NOAA

SBFL 171800Z 02012KT 9999 FEW030 32/24 Q1009


Station Type Date Time Source
SBFL Decoded METAR 2018/12/17 18:00 UTC NOAA

Florianopolis Aeroporto , Brazil (SBFL) 27-40S 048-33W 5M
Dec 17, 2018 - 01:00 PM EST / 2018.12.17 1800 UTC
Wind: from the NNE (020 degrees) at 14 MPH (12 KT):0
Visibility: greater than 7 mile(s):0
Sky conditions: mostly clear
Temperature: 89 F (32 C)
Heat index: 98.4 F (36.9 C):1
Dew Point: 75 F (24 C)
Relative Humidity: 62%
Pressure (altimeter): 29.80 in. Hg (1009 hPa)
ob: SBFL 171800Z 02012KT 9999 FEW030 32/24 Q1009
cycle: 18

Station Type Date Time Source
SBFL TAF 2018/12/17 18:51 UTC NOAA

TAF SBFL 171500Z 1718/1818 01012KT 9999 FEW035 TX31/1718Z TN23/1808Z
BECMG 1720/1722 06007KT SCT025 FEW053TCU
BECMG 1722/1724 7000 TSRA BKN025 FEW035CB
BECMG 1802/1804 35005KT 9999 NSW BKN010
BECMG 1809/1811 SCT020
BECMG 1813/1815 16012KT BKN030
RMK PDW


Example: see airport list